Time;durP1;ratioP1;P1;durP2;ratioP2;P2;SDS_P1;SDS_P2;PMS_P1;PMS_P2;Temp;Humidity;BMP_temperature;BMP_pressure;BME280_temperature;BME280_humidity;BME280_pressure;Samples;Min_cycle;Max_cycle;Signal;HPM_P1;HPM_P2
2021/12/21 00:01:06;;;;;;;13.20;8.87;;;0.90;99.90;;;1.70;100.00;-19784.78;5087506;28;20199;-70
2021/12/21 00:03:34;;;;;;;12.43;9.30;;;0.90;99.90;;;1.70;100.00;-19784.59;5085710;28;20752;-71
2021/12/21 00:06:03;;;;;;;13.47;9.50;;;0.90;99.90;;;1.72;100.00;-19785.28;5091327;28;20603;-69
2021/12/21 00:08:32;;;;;;;13.60;10.03;;;1.00;99.90;;;1.80;100.00;-19788.19;5093403;28;20196;-69
2021/12/21 00:11:15;;;;;;;12.73;9.80;;;0.90;99.90;;;1.81;100.00;-19788.53;5095749;28;20199;-71
2021/12/21 00:19:45;;;;;;;14.93;9.77;;;1.00;99.90;;;1.80;100.00;-19788.03;5075261;28;20231;-70
2021/12/21 00:22:32;;;;;;;13.67;9.77;;;1.00;99.90;;;1.82;100.00;-19788.88;5090184;28;20387;-70
2021/12/21 00:25:00;;;;;;;13.20;9.80;;;1.00;99.90;;;1.87;100.00;-19790.44;5093290;28;20813;-70
2021/12/21 00:27:28;;;;;;;13.70;9.77;;;1.00;99.90;;;1.86;100.00;-19790.25;5092413;28;20678;-70
2021/12/21 00:29:57;;;;;;;14.10;9.80;;;1.00;99.90;;;1.89;100.00;-19791.28;5088495;28;20303;-69
2021/12/21 00:32:25;;;;;;;14.50;9.50;;;1.00;99.90;;;1.73;100.00;-19785.63;5107290;28;20298;-69
2021/12/21 00:34:53;;;;;;;10.87;9.33;;;1.10;99.90;;;2.04;100.00;-19796.41;5096308;28;20651;-69
2021/12/21 00:37:22;;;;;;;18.43;10.63;;;1.10;99.90;;;2.01;100.00;-19795.38;5094821;28;20230;-71
2021/12/21 00:39:50;;;;;;;13.77;10.33;;;1.10;99.90;;;1.89;100.00;-19791.28;5099359;28;20228;-69
2021/12/21 00:42:18;;;;;;;13.23;8.77;;;1.20;99.90;;;1.85;100.00;-19789.75;5090319;28;20232;-69
2021/12/21 00:44:47;;;;;;;15.10;9.83;;;1.20;99.90;;;1.81;100.00;-19788.38;5093676;28;20569;-68
2021/12/21 00:47:17;;;;;;;13.93;9.87;;;1.20;99.90;;;1.94;100.00;-19793.00;5093435;28;20827;-71
2021/12/21 00:49:47;;;;;;;14.07;9.73;;;1.20;99.90;;;1.94;100.00;-19793.00;5094757;28;20283;-70
2021/12/21 00:52:16;;;;;;;14.57;10.27;;;1.20;99.90;;;1.98;100.00;-19794.34;5092398;28;20425;-70
2021/12/21 00:54:44;;;;;;;12.60;9.83;;;1.30;99.90;;;1.95;100.00;-19793.16;5094823;28;20196;-71
2021/12/21 00:57:12;;;;;;;12.20;9.23;;;1.30;99.90;;;1.88;100.00;-19790.75;5094854;28;20214;-69
2021/12/21 00:59:40;;;;;;;12.90;9.20;;;1.30;99.90;;;2.11;100.00;-19798.81;5094367;28;20252;-70
2021/12/21 01:02:08;;;;;;;15.57;10.30;;;1.40;99.90;;;2.01;100.00;-19795.38;5088905;28;20233;-70
2021/12/21 01:04:42;;;;;;;17.70;9.97;;;1.20;99.90;;;1.95;100.00;-19793.34;5088782;28;20279;-71
2021/12/21 01:07:20;;;;;;;15.17;9.40;;;1.10;99.90;;;2.04;100.00;-19796.25;5083242;28;20234;-69
2021/12/21 01:12:49;;;;;;;12.63;8.73;;;1.20;99.90;;;1.93;100.00;-19792.66;5068441;27;20210;-69
2021/12/21 01:15:32;;;;;;;13.40;9.93;;;1.20;99.90;;;1.99;100.00;-19794.69;5080933;28;20203;-70
2021/12/21 01:18:04;;;;;;;12.97;9.93;;;1.20;99.90;;;1.85;100.00;-19789.91;5081053;28;20201;-71
2021/12/21 01:20:38;;;;;;;13.83;9.93;;;1.20;99.90;;;1.77;100.00;-19787.19;5091883;28;20920;-70
2021/12/21 01:23:33;;;;;;;14.20;9.60;;;1.20;99.90;;;1.95;100.00;-19793.16;5099268;28;20196;-71
2021/12/21 01:26:07;;;;;;;13.13;9.30;;;1.20;99.90;;;1.84;100.00;-19789.41;5097609;28;20645;-70
2021/12/21 01:28:43;;;;;;;14.53;9.93;;;1.20;99.90;;;1.98;100.00;-19794.34;5076329;28;20291;-68
2021/12/21 01:31:23;;;;;;;16.53;9.80;;;1.20;99.90;;;1.86;100.00;-19790.09;5098195;28;20196;-69
2021/12/21 01:34:04;;;;;;;15.03;9.87;;;1.20;99.90;;;1.86;100.00;-19790.25;5098234;28;20224;-69
2021/12/21 01:36:39;;;;;;;12.97;9.37;;;1.20;99.90;;;1.94;100.00;-19793.00;5096338;28;20283;-69
2021/12/21 01:39:16;;;;;;;17.20;9.00;;;1.20;99.90;;;1.93;100.00;-19792.47;5074438;28;20208;-69
2021/12/21 01:41:52;;;;;;;14.47;9.60;;;1.20;99.90;;;2.03;100.00;-19795.91;5098861;28;20195;-69
2021/12/21 01:44:40;;;;;;;15.97;10.23;;;1.30;99.90;;;2.04;100.00;-19796.41;5095650;28;20190;-69
2021/12/21 01:49:53;;;;;;;13.97;8.67;;;1.30;99.90;;;1.86;100.00;-19790.09;5082339;28;20202;-70
2021/12/21 01:52:26;;;;;;;13.63;9.60;;;1.30;99.90;;;1.86;100.00;-19790.25;5094373;28;20342;-69
2021/12/21 01:54:55;;;;;;;15.07;10.47;;;1.20;99.90;;;1.85;100.00;-19789.91;5094441;28;20238;-69
2021/12/21 01:57:24;;;;;;;16.63;9.80;;;1.20;99.90;;;1.92;100.00;-19792.13;5091262;28;21961;-70
2021/12/21 01:59:52;;;;;;;17.63;10.73;;;1.20;99.90;;;2.16;100.00;-19800.34;5091061;28;20219;-69
2021/12/21 02:02:21;;;;;;;14.50;10.53;;;1.20;99.90;;;2.03;100.00;-19796.06;5094048;28;20206;-68
2021/12/21 02:04:50;;;;;;;17.30;10.67;;;1.30;99.90;;;1.90;100.00;-19791.63;5089531;28;20196;-69
2021/12/21 02:07:18;;;;;;;16.03;10.80;;;1.20;99.90;;;1.86;100.00;-19790.09;5091707;28;20298;-68
2021/12/21 02:09:47;;;;;;;16.83;9.87;;;1.20;99.90;;;1.78;100.00;-19787.34;5076672;28;20214;-68
2021/12/21 02:12:22;;;;;;;19.00;10.63;;;1.10;99.90;;;1.73;100.00;-19785.81;5073067;28;20207;-70
2021/12/21 02:14:56;;;;;;;16.57;10.30;;;1.10;99.90;;;1.81;100.00;-19788.38;5072742;28;20566;-69
2021/12/21 02:20:40;;;;;;;15.93;9.83;;;1.10;99.90;;;1.64;100.00;-19782.72;5039439;28;20217;-69
2021/12/21 02:23:12;;;;;;;15.17;9.33;;;1.00;99.90;;;1.79;100.00;-19787.69;5067340;28;20270;-69
2021/12/21 02:26:02;;;;;;;15.30;9.80;;;1.00;99.90;;;1.76;100.00;-19786.84;5072407;28;20290;-69
2021/12/21 02:28:58;;;;;;;16.17;9.80;;;1.00;99.90;;;1.70;100.00;-19784.78;5068933;28;20280;-69
2021/12/21 02:31:27;;;;;;;15.60;10.53;;;1.00;99.90;;;1.75;100.00;-19786.50;5072929;28;20196;-69
2021/12/21 02:33:56;;;;;;;20.57;12.30;;;1.00;99.90;;;1.77;100.00;-19787.00;5072433;28;20210;-70
2021/12/21 02:36:25;;;;;;;19.13;13.50;;;1.00;99.90;;;1.64;100.00;-19782.56;5071429;28;20729;-69
2021/12/21 02:38:53;;;;;;;17.63;12.53;;;0.90;99.90;;;1.58;100.00;-19780.50;5068800;28;20296;-69
2021/12/21 02:41:22;;;;;;;17.77;12.70;;;0.90;99.90;;;1.62;100.00;-19782.06;5071423;28;20292;-69
2021/12/21 02:43:50;;;;;;;15.13;11.30;;;0.90;99.90;;;1.49;100.00;-19777.44;5072544;28;20214;-69
2021/12/21 02:46:18;;;;;;;14.13;10.60;;;0.90;99.90;;;1.46;100.00;-19776.41;5076173;28;20200;-68
2021/12/21 02:48:46;;;;;;;14.60;10.27;;;0.80;99.90;;;1.41;100.00;-19774.69;5076926;28;20644;-68
2021/12/21 02:51:14;;;;;;;15.50;10.10;;;0.80;99.90;;;1.24;100.00;-19769.06;5070409;28;20335;-69
2021/12/21 02:53:44;;;;;;;15.60;10.23;;;0.70;99.90;;;1.32;100.00;-19771.78;5071816;28;20238;-70
2021/12/21 02:56:14;;;;;;;16.90;10.43;;;0.70;99.90;;;1.32;100.00;-19771.78;5070011;28;20197;-69
2021/12/21 02:58:42;;;;;;;17.83;10.57;;;0.70;99.90;;;1.24;100.00;-19769.06;5068640;28;20189;-69
2021/12/21 03:01:12;;;;;;;16.60;10.63;;;0.70;99.90;;;1.30;100.00;-19771.09;5069966;28;20315;-69
2021/12/21 03:03:40;;;;;;;15.47;10.77;;;0.70;99.90;;;1.32;100.00;-19771.63;5067404;28;20280;-69
2021/12/21 03:06:15;;;;;;;16.30;10.33;;;0.70;99.90;;;1.35;100.00;-19772.81;5069332;28;20215;-69
2021/12/21 03:08:55;;;;;;;15.70;10.27;;;0.70;99.90;;;1.33;100.00;-19771.97;5066218;28;20283;-69
2021/12/21 03:11:36;;;;;;;16.37;11.50;;;0.70;99.90;;;1.25;100.00;-19769.41;5064724;28;20239;-69
2021/12/21 03:14:08;;;;;;;14.90;10.67;;;0.60;99.90;;;1.29;100.00;-19770.75;5064048;28;20198;-70
2021/12/21 03:16:39;;;;;;;15.00;10.90;;;0.60;99.90;;;1.17;100.00;-19766.84;5062750;28;20197;-70
2021/12/21 03:19:10;;;;;;;13.57;10.70;;;0.60;99.90;;;1.17;100.00;-19766.66;5060655;28;20211;-69
2021/12/21 03:21:40;;;;;;;14.00;10.77;;;0.50;99.90;;;1.23;100.00;-19768.88;5068517;28;20227;-69
2021/12/21 03:24:10;;;;;;;13.97;10.30;;;0.50;99.90;;;1.22;100.00;-19768.53;5060134;28;20717;-70
2021/12/21 03:26:39;;;;;;;17.77;10.80;;;0.50;99.90;;;1.21;100.00;-19768.03;5068447;28;20200;-70
2021/12/21 03:29:07;;;;;;;19.07;10.63;;;0.60;99.90;;;1.17;100.00;-19766.66;5068225;28;20207;-69
2021/12/21 03:31:36;;;;;;;16.20;10.17;;;0.50;99.90;;;1.07;100.00;-19763.25;5083589;28;20196;-69
2021/12/21 03:34:05;;;;;;;18.60;12.00;;;0.50;99.90;;;0.93;100.00;-19758.47;5079943;28;20196;-68
2021/12/21 03:36:34;;;;;;;14.40;10.77;;;0.40;99.90;;;0.87;100.00;-19756.56;5091218;28;20204;-70
2021/12/21 03:39:06;;;;;;;20.17;12.20;;;0.40;99.90;;;0.84;100.00;-19755.38;5080129;28;20651;-69
2021/12/21 03:41:40;;;;;;;17.80;12.30;;;0.30;99.90;;;0.86;100.00;-19756.06;5087268;28;20214;-70
2021/12/21 03:44:09;;;;;;;15.67;11.97;;;0.20;99.90;;;0.65;100.00;-19748.88;5083094;28;20197;-69
2021/12/21 03:46:45;;;;;;;16.37;11.37;;;0.20;99.90;;;0.57;100.00;-19746.31;5090759;28;20287;-69
2021/12/21 03:49:49;;;;;;;16.37;11.57;;;0.10;99.90;;;0.57;100.00;-19746.16;5078974;28;20251;-70
2021/12/21 03:52:12;;;;;;;16.53;11.67;;;0.00;99.90;;;0.48;100.00;-19743.25;5077103;28;20229;-69
2021/12/21 03:54:44;;;;;;;17.87;10.87;;;0.00;99.90;;;0.54;100.00;-19745.13;5082715;28;20664;-69
2021/12/21 03:57:14;;;;;;;18.70;11.60;;;0.00;99.90;;;0.57;100.00;-19746.31;5079907;28;20197;-69
2021/12/21 03:59:44;;;;;;;17.87;11.67;;;0.00;99.90;;;0.57;100.00;-19746.31;5071096;28;20683;-69
2021/12/21 04:02:13;;;;;;;17.53;12.03;;;0.00;99.90;;;0.55;100.00;-19745.63;5087773;28;20197;-69
2021/12/21 04:04:44;;;;;;;16.20;11.70;;;-0.10;99.90;;;0.55;100.00;-19745.47;5074862;28;20205;-69
2021/12/21 04:07:12;;;;;;;16.53;11.67;;;-0.10;99.90;;;0.50;100.00;-19743.91;5053959;28;20610;-69
2021/12/21 04:09:40;;;;;;;15.90;11.47;;;0.00;99.90;;;0.40;100.00;-19740.34;5065127;28;20242;-69
2021/12/21 04:12:10;;;;;;;16.70;11.10;;;-0.10;99.90;;;0.40;100.00;-19740.34;5074831;28;20193;-71
2021/12/21 04:14:40;;;;;;;16.43;11.43;;;-0.20;99.90;;;0.37;100.00;-19739.31;5075074;28;20357;-70
2021/12/21 04:17:16;;;;;;;19.43;11.87;;;-0.20;99.90;;;0.41;100.00;-19740.66;5074868;28;20213;-69
2021/12/21 04:19:45;;;;;;;19.10;11.17;;;-0.20;99.90;;;0.42;100.00;-19741.19;5074929;28;20554;-68
2021/12/21 04:22:14;;;;;;;19.47;11.73;;;-0.30;99.90;;;0.39;100.00;-19740.00;5074742;28;20237;-70
2021/12/21 04:24:44;;;;;;;20.17;11.50;;;-0.30;99.90;;;0.30;100.00;-19736.91;5072695;28;20283;-69
2021/12/21 04:27:15;;;;;;;18.90;11.20;;;-0.30;99.90;;;0.42;100.00;-19741.00;5065613;28;20196;-69
2021/12/21 04:29:45;;;;;;;18.33;11.90;;;-0.30;99.90;;;0.35;100.00;-19738.78;5054453;28;20252;-70
2021/12/21 04:32:14;;;;;;;18.30;11.63;;;-0.30;99.90;;;0.19;100.00;-19733.16;5054675;28;20235;-70
2021/12/21 04:34:42;;;;;;;21.17;12.63;;;-0.30;99.90;;;-0.03;100.00;-19725.78;5054620;28;20208;-70
2021/12/21 04:37:12;;;;;;;20.63;12.47;;;-0.40;99.90;;;0.12;100.00;-19730.75;5071359;28;20213;-70
2021/12/21 04:39:45;;;;;;;21.33;12.83;;;-0.40;99.90;;;0.07;100.00;-19729.06;5074602;28;20290;-69
2021/12/21 04:42:13;;;;;;;19.93;12.17;;;-0.50;99.90;;;-0.01;100.00;-19726.66;5074529;28;20576;-69
2021/12/21 04:44:41;;;;;;;20.33;11.57;;;-0.40;99.90;;;0.10;100.00;-19730.06;5074171;28;20302;-69
2021/12/21 04:47:11;;;;;;;17.03;10.80;;;-0.50;99.90;;;0.13;100.00;-19731.09;5074222;28;20693;-69
2021/12/21 04:49:39;;;;;;;15.83;10.63;;;-0.50;99.90;;;0.11;100.00;-19730.41;5074466;28;20212;-69
2021/12/21 04:52:08;;;;;;;17.03;11.40;;;-0.50;99.90;;;-0.04;100.00;-19725.47;5073984;28;20227;-67
2021/12/21 04:54:36;;;;;;;18.40;11.13;;;-0.50;99.90;;;-0.16;100.00;-19721.53;5074210;28;20202;-69
2021/12/21 04:57:05;;;;;;;18.40;10.90;;;-0.50;99.90;;;-0.02;100.00;-19726.16;5073943;28;20241;-68
2021/12/21 04:59:33;;;;;;;16.40;10.87;;;-0.60;99.90;;;-0.03;100.00;-19725.78;5074352;28;20625;-68
2021/12/21 05:02:01;;;;;;;16.03;10.57;;;-0.60;99.90;;;0.09;100.00;-19729.91;5073967;28;20311;-69
2021/12/21 05:04:31;;;;;;;15.97;10.33;;;-0.60;99.90;;;0.14;100.00;-19731.59;5073639;28;20244;-69
2021/12/21 05:06:59;;;;;;;15.10;10.37;;;-0.60;99.90;;;0.07;100.00;-19729.22;5073439;28;20283;-69
2021/12/21 05:09:30;;;;;;;14.07;11.03;;;-0.50;99.90;;;-0.06;100.00;-19724.78;5074121;28;20210;-69
2021/12/21 05:12:03;;;;;;;16.07;9.97;;;-0.60;99.90;;;-0.04;100.00;-19725.47;5073721;28;20292;-68
2021/12/21 05:14:31;;;;;;;15.03;10.17;;;-0.60;99.90;;;-0.24;100.00;-19718.63;5074034;28;20233;-70
2021/12/21 05:16:59;;;;;;;15.63;10.47;;;-0.70;99.90;;;-0.30;100.00;-19716.75;5073588;28;20207;-70
2021/12/21 05:19:28;;;;;;;16.10;10.27;;;-0.70;99.90;;;-0.35;100.00;-19715.03;5073655;28;20196;-69
2021/12/21 05:21:57;;;;;;;17.60;10.60;;;-0.70;99.90;;;-0.40;100.00;-19713.31;5073519;28;20225;-69
2021/12/21 05:24:25;;;;;;;16.57;11.33;;;-0.80;99.90;;;-0.31;100.00;-19716.22;5073499;28;20196;-70
2021/12/21 05:26:53;;;;;;;15.53;11.13;;;-0.90;99.90;;;-0.42;100.00;-19712.47;5073352;28;20761;-69
2021/12/21 05:29:22;;;;;;;13.07;10.37;;;-0.90;99.90;;;-0.54;100.00;-19708.53;5073522;28;20559;-68
2021/12/21 05:31:50;;;;;;;18.80;10.47;;;-0.90;99.90;;;-0.54;100.00;-19708.38;5073024;28;20215;-70
2021/12/21 05:34:18;;;;;;;14.00;9.67;;;-0.90;99.90;;;-0.43;100.00;-19712.28;5066392;28;20195;-72
2021/12/21 05:36:46;;;;;;;14.37;9.80;;;-0.90;99.90;;;-0.44;100.00;-19711.78;5068021;28;20255;-70
2021/12/21 05:39:19;;;;;;;17.03;10.30;;;-0.90;99.90;;;-0.48;100.00;-19710.41;5073457;28;20240;-70
2021/12/21 05:41:50;;;;;;;16.10;10.87;;;-0.90;99.90;;;-0.43;100.00;-19712.13;5073257;28;20250;-70
2021/12/21 05:44:20;;;;;;;19.13;11.00;;;-0.90;99.90;;;-0.29;100.00;-19717.06;5073398;28;20330;-68
2021/12/21 05:46:50;;;;;;;18.80;10.90;;;-0.90;99.90;;;-0.47;100.00;-19710.91;5072852;28;20624;-70
2021/12/21 05:49:18;;;;;;;16.60;10.97;;;-1.00;99.90;;;-0.23;100.00;-19719.13;5073005;28;20293;-69
2021/12/21 05:51:47;;;;;;;17.70;10.77;;;-0.90;99.90;;;-0.29;100.00;-19717.06;5072978;28;20385;-71
2021/12/21 05:54:21;;;;;;;13.67;10.20;;;-0.90;99.90;;;-0.28;100.00;-19717.41;5072943;28;20297;-70
2021/12/21 05:56:49;;;;;;;17.70;11.17;;;-0.90;99.90;;;-0.13;100.00;-19722.56;5072109;28;20196;-70
2021/12/21 05:59:17;;;;;;;18.63;11.47;;;-0.80;99.90;;;-0.20;100.00;-19719.97;5073186;28;20600;-70
2021/12/21 06:01:46;;;;;;;15.03;10.53;;;-0.90;99.90;;;-0.31;100.00;-19716.22;5072647;28;20223;-70
2021/12/21 06:04:14;;;;;;;17.23;10.20;;;-0.90;99.90;;;-0.34;100.00;-19715.38;5072890;28;20215;-68
2021/12/21 06:06:42;;;;;;;16.77;9.87;;;-0.90;99.90;;;-0.40;100.00;-19713.16;5072554;28;20547;-70
2021/12/21 06:09:12;;;;;;;14.50;9.63;;;-0.90;99.90;;;-0.50;100.00;-19709.72;5072935;28;20205;-70
2021/12/21 06:11:48;;;;;;;15.87;10.03;;;-1.00;99.90;;;-0.43;100.00;-19712.13;5072886;28;20309;-70
2021/12/21 06:14:36;;;;;;;17.53;9.67;;;-1.00;99.90;;;-0.24;100.00;-19718.63;5072731;28;20614;-69
2021/12/21 06:22:45;;;;;;;16.47;11.77;;;-1.00;99.90;;;-0.51;100.00;-19709.56;5072420;28;20204;-70
2021/12/21 06:25:35;;;;;;;20.27;11.00;;;-1.00;99.90;;;-0.44;100.00;-19711.78;5072712;28;20276;-70
2021/12/21 06:28:08;;;;;;;16.07;10.87;;;-1.00;99.90;;;-0.41;100.00;-19712.97;5072048;28;20259;-70
2021/12/21 06:30:39;;;;;;;17.13;12.67;;;-1.00;99.90;;;-0.34;100.00;-19715.19;5072635;28;20281;-69
2021/12/21 06:33:08;;;;;;;20.07;14.43;;;-1.00;99.90;;;-0.44;100.00;-19711.78;5072485;28;20273;-69
2021/12/21 06:35:39;;;;;;;24.20;16.83;;;-1.00;99.90;;;-0.48;100.00;-19710.59;5072126;28;20747;-68
2021/12/21 06:38:08;;;;;;;16.80;10.60;;;-1.00;99.90;;;-0.51;100.00;-19709.56;5072345;28;20185;-68
2021/12/21 06:40:36;;;;;;;18.27;10.10;;;-1.10;99.90;;;-0.48;100.00;-19710.59;5071627;28;20203;-70
2021/12/21 06:43:11;;;;;;;14.13;9.50;;;-1.10;99.90;;;-0.54;100.00;-19708.38;5054976;28;20304;-68
2021/12/21 06:45:52;;;;;;;17.40;10.20;;;-1.10;99.90;;;-0.32;100.00;-19716.06;5052268;28;20196;-70
2021/12/21 06:51:21;;;;;;;15.20;10.77;;;-1.00;99.90;;;-0.41;100.00;-19712.97;5052021;28;20189;-70
2021/12/21 06:53:53;;;;;;;14.83;10.37;;;-1.10;99.90;;;-0.19;100.00;-19720.50;5052561;28;20237;-70
2021/12/21 06:56:26;;;;;;;19.10;10.13;;;-1.00;99.90;;;-0.28;100.00;-19717.25;5052315;28;20629;-70
2021/12/21 06:58:56;;;;;;;15.30;10.30;;;-0.90;99.90;;;-0.38;100.00;-19714.00;5052028;28;20617;-69
2021/12/21 07:01:28;;;;;;;12.83;10.10;;;-0.90;99.90;;;-0.39;100.00;-19713.66;5051936;28;20724;-70
2021/12/21 07:03:58;;;;;;;16.43;10.70;;;-1.00;99.90;;;-0.51;100.00;-19709.56;5070583;28;20287;-69
2021/12/21 07:06:27;;;;;;;14.97;10.63;;;-1.00;99.90;;;-0.58;100.00;-19707.16;5067536;28;20512;-69
2021/12/21 07:09:01;;;;;;;14.33;10.47;;;-1.10;99.90;;;-0.50;100.00;-19709.72;5074516;28;20202;-69
2021/12/21 07:11:39;;;;;;;15.33;10.20;;;-1.00;99.90;;;-0.43;100.00;-19712.28;5076139;28;20553;-69
2021/12/21 07:19:42;;;;;;;14.60;10.00;;;-0.90;99.90;;;-0.35;100.00;-19715.03;5076012;28;20232;-69
2021/12/21 07:22:11;;;;;;;16.50;9.87;;;-0.90;99.90;;;-0.35;100.00;-19714.84;5075961;28;20652;-68
2021/12/21 07:24:40;;;;;;;14.77;10.43;;;-0.90;99.90;;;-0.35;100.00;-19715.03;5075939;28;20286;-70
2021/12/21 07:27:08;;;;;;;16.93;10.37;;;-0.90;99.90;;;-0.24;100.00;-19718.78;5076003;28;20656;-70
2021/12/21 07:29:37;;;;;;;15.43;9.97;;;-0.90;99.90;;;-0.12;100.00;-19722.72;5076212;28;20203;-70
2021/12/21 07:32:07;;;;;;;15.97;10.43;;;-0.80;99.90;;;0.00;100.00;-19727.00;5076223;28;20232;-69
2021/12/21 07:34:35;;;;;;;12.93;9.97;;;-0.70;99.90;;;0.10;100.00;-19730.06;5075959;28;20201;-70
2021/12/21 07:37:05;;;;;;;13.50;9.67;;;-0.70;99.90;;;0.12;100.00;-19730.94;5070545;28;20200;-69
2021/12/21 07:39:33;;;;;;;12.80;9.63;;;-0.40;99.90;;;0.18;100.00;-19732.81;5067465;28;20289;-69
2021/12/21 07:42:17;;;;;;;14.10;10.07;;;-0.50;99.90;;;0.06;100.00;-19728.88;5068454;28;20226;-69
2021/12/21 07:44:47;;;;;;;13.40;10.17;;;-0.40;99.90;;;0.09;100.00;-19729.72;5078294;28;20222;-70
2021/12/21 07:47:16;;;;;;;16.37;10.53;;;-0.50;99.90;;;0.27;100.00;-19735.88;5068865;28;20231;-69
2021/12/21 07:49:45;;;;;;;15.00;10.37;;;-0.40;99.90;;;0.46;100.00;-19742.38;5066222;28;20205;-69
2021/12/21 07:52:14;;;;;;;17.37;10.50;;;-0.30;99.90;;;0.70;100.00;-19750.59;5077578;28;20319;-69
2021/12/21 07:54:43;;;;;;;13.73;9.47;;;-0.20;99.90;;;0.63;100.00;-19748.19;5077226;28;20204;-69
2021/12/21 07:57:12;;;;;;;13.20;9.97;;;-0.20;99.90;;;0.66;100.00;-19749.22;5073803;28;20230;-69
2021/12/21 07:59:41;;;;;;;14.97;10.03;;;-0.10;99.90;;;0.83;100.00;-19755.03;5066947;28;20288;-70
2021/12/21 08:02:15;;;;;;;14.07;9.70;;;-0.10;99.90;;;0.68;100.00;-19749.91;5062526;28;20209;-70
2021/12/21 08:04:44;;;;;;;15.23;9.93;;;-0.10;99.90;;;0.68;100.00;-19750.06;5063209;28;20869;-71
2021/12/21 08:07:17;;;;;;;12.77;9.93;;;-0.10;99.90;;;0.76;100.00;-19752.66;5063013;28;20641;-69
2021/12/21 08:09:48;;;;;;;15.03;10.20;;;0.00;99.90;;;0.77;100.00;-19753.16;5066883;28;20275;-69
2021/12/21 08:12:19;;;;;;;14.50;9.90;;;0.00;99.90;;;0.84;100.00;-19755.38;5064024;28;20734;-70
2021/12/21 08:14:50;;;;;;;17.87;10.73;;;0.00;99.90;;;1.01;100.00;-19761.38;5069299;28;20196;-70
2021/12/21 08:17:21;;;;;;;19.30;11.57;;;0.20;99.90;;;1.01;100.00;-19761.19;5075629;28;20291;-69
2021/12/21 08:19:49;;;;;;;17.50;12.27;;;0.20;99.90;;;1.10;100.00;-19764.44;5070573;28;20617;-69
2021/12/21 08:22:17;;;;;;;17.63;11.47;;;0.30;99.90;;;1.24;100.00;-19769.22;5072842;28;20221;-69
2021/12/21 08:24:46;;;;;;;15.83;11.73;;;0.40;99.90;;;1.27;100.00;-19770.25;5074949;28;20228;-69
2021/12/21 08:27:14;;;;;;;15.70;11.17;;;0.40;99.90;;;1.27;100.00;-19769.91;5068103;28;20201;-69
2021/12/21 08:29:42;;;;;;;13.23;10.43;;;0.40;99.90;;;1.25;100.00;-19769.41;5073248;28;20296;-69
2021/12/21 08:32:11;;;;;;;13.97;9.90;;;0.40;99.90;;;1.47;100.00;-19776.75;5073224;28;20288;-69
2021/12/21 08:34:40;;;;;;;16.67;10.60;;;0.50;99.90;;;1.27;100.00;-19769.91;5074223;28;20203;-69
2021/12/21 08:37:09;;;;;;;14.70;10.60;;;0.50;99.90;;;1.30;100.00;-19771.09;5073823;28;20837;-69
2021/12/21 08:39:40;;;;;;;18.30;10.83;;;0.50;99.90;;;1.46;100.00;-19776.41;5071603;28;20239;-70
2021/12/21 08:42:14;;;;;;;14.20;11.03;;;0.60;99.90;;;1.34;100.00;-19772.47;5074759;28;20199;-69
2021/12/21 08:44:45;;;;;;;15.20;12.07;;;0.60;99.90;;;1.43;100.00;-19775.56;5073499;28;20192;-69
2021/12/21 08:47:14;;;;;;;14.40;11.30;;;0.60;99.90;;;1.54;100.00;-19779.16;5072777;28;20232;-69
2021/12/21 08:49:49;;;;;;;16.00;10.60;;;0.60;99.90;;;1.49;100.00;-19777.59;5072087;28;20223;-69
2021/12/21 08:52:17;;;;;;;13.83;11.13;;;0.60;99.90;;;1.56;100.00;-19780.00;5059177;28;20315;-69
2021/12/21 08:54:45;;;;;;;15.77;10.33;;;0.70;99.90;;;1.63;100.00;-19782.22;5067119;28;20204;-68
2021/12/21 08:57:14;;;;;;;14.57;10.87;;;0.70;99.90;;;1.66;100.00;-19783.41;5071619;28;20554;-70
2021/12/21 08:59:42;;;;;;;12.83;9.47;;;0.80;99.90;;;1.75;100.00;-19786.31;5070930;28;20300;-71
2021/12/21 09:02:11;;;;;;;13.77;11.80;;;0.80;99.90;;;1.79;100.00;-19787.88;5072512;28;20197;-68
2021/12/21 09:04:40;;;;;;;14.47;9.93;;;0.90;99.90;;;1.81;100.00;-19788.53;5068598;28;20312;-70
2021/12/21 09:07:10;;;;;;;16.57;11.73;;;0.80;99.90;;;1.94;100.00;-19793.00;5071679;28;20254;-70
2021/12/21 09:09:38;;;;;;;16.30;11.70;;;0.90;99.90;;;2.01;100.00;-19795.38;5060205;28;20614;-69
2021/12/21 09:12:08;;;;;;;14.87;11.10;;;1.00;99.90;;;1.88;100.00;-19790.75;5069647;28;20202;-68
2021/12/21 09:14:36;;;;;;;17.63;11.43;;;1.00;99.90;;;1.91;100.00;-19791.97;5071520;28;20191;-69
2021/12/21 09:17:05;;;;;;;13.67;10.40;;;1.10;99.90;;;2.24;100.00;-19803.25;5070831;28;20232;-70
2021/12/21 09:19:33;;;;;;;14.50;10.53;;;1.20;99.90;;;2.12;100.00;-19798.97;5071152;28;20211;-69
2021/12/21 09:22:02;;;;;;;19.17;11.53;;;1.20;99.90;;;1.98;100.00;-19794.34;5071855;28;20265;-68
2021/12/21 09:24:31;;;;;;;11.83;9.23;;;1.20;99.90;;;2.02;100.00;-19795.56;5070612;28;20309;-70
2021/12/21 09:26:59;;;;;;;17.03;10.60;;;1.20;99.90;;;2.26;100.00;-19803.75;5070037;28;20692;-70
2021/12/21 09:29:28;;;;;;;16.83;11.93;;;1.30;99.90;;;2.32;100.00;-19805.97;5069671;28;20208;-70
2021/12/21 09:31:56;;;;;;;15.20;10.70;;;1.40;99.90;;;2.45;100.00;-19810.44;5069412;28;20295;-69
2021/12/21 09:34:24;;;;;;;14.50;10.10;;;1.50;99.90;;;2.37;100.00;-19807.69;5069435;28;20205;-70
2021/12/21 09:36:52;;;;;;;14.17;10.97;;;1.50;99.90;;;2.77;100.00;-19821.03;5069584;28;20243;-69
2021/12/21 09:39:20;;;;;;;14.90;10.87;;;1.60;99.90;;;2.67;100.00;-19817.78;5069626;28;20281;-68
2021/12/21 09:41:50;;;;;;;16.67;11.03;;;1.70;99.90;;;2.89;100.00;-19825.13;5069377;28;20322;-69
2021/12/21 09:44:18;;;;;;;15.67;10.67;;;1.80;99.90;;;2.74;100.00;-19820.16;5061394;28;20603;-69
2021/12/21 09:46:46;;;;;;;17.43;11.00;;;1.80;99.90;;;2.88;100.00;-19824.78;5064766;28;20284;-69
2021/12/21 09:49:15;;;;;;;15.33;10.77;;;1.90;99.90;;;2.81;100.00;-19822.56;5060666;28;20750;-69
2021/12/21 09:51:44;;;;;;;14.20;10.97;;;1.90;99.90;;;2.63;100.00;-19816.25;5073175;28;20236;-69
2021/12/21 09:54:16;;;;;;;16.47;11.23;;;1.80;99.90;;;2.61;100.00;-19815.56;5079297;28;20252;-67
2021/12/21 09:56:44;;;;;;;15.27;11.03;;;1.80;99.90;;;2.64;100.00;-19816.59;5085746;28;20293;-70
2021/12/21 09:59:13;;;;;;;16.10;10.50;;;1.80;99.90;;;2.65;100.00;-19817.09;5078348;28;20205;-67
2021/12/21 10:01:45;;;;;;;14.70;10.53;;;1.80;99.90;;;2.68;100.00;-19817.94;5084320;28;20207;-69
2021/12/21 10:04:13;;;;;;;14.93;11.77;;;1.70;99.90;;;2.71;100.00;-19819.16;5063259;28;20722;-69
2021/12/21 10:06:48;;;;;;;15.73;12.13;;;1.70;99.90;;;2.79;100.00;-19821.88;5061408;28;20207;-68
2021/12/21 10:09:20;;;;;;;15.67;10.30;;;1.70;99.90;;;2.85;100.00;-19823.75;5058722;28;20226;-69
2021/12/21 10:12:05;;;;;;;14.80;11.03;;;1.80;99.90;;;2.76;100.00;-19820.84;5062375;28;20650;-69
2021/12/21 10:14:34;;;;;;;19.87;11.57;;;1.70;99.90;;;2.77;100.00;-19821.19;5064954;28;20226;-69
2021/12/21 10:17:07;;;;;;;16.20;11.03;;;1.80;99.90;;;2.83;100.00;-19823.25;5061267;28;20201;-70
2021/12/21 10:19:37;;;;;;;18.40;12.10;;;1.80;99.90;;;2.90;100.00;-19825.47;5059882;28;20197;-69
2021/12/21 10:22:15;;;;;;;19.43;12.53;;;1.80;99.90;;;2.94;100.00;-19827.00;5062666;28;20691;-69
2021/12/21 10:24:49;;;;;;;20.10;11.77;;;1.80;99.90;;;2.97;100.00;-19827.88;5066829;28;20648;-69
2021/12/21 10:27:20;;;;;;;16.80;12.00;;;1.80;99.90;;;3.21;100.00;-19836.06;5061715;28;20298;-70
2021/12/21 10:29:52;;;;;;;17.13;12.27;;;1.90;99.90;;;3.18;100.00;-19835.03;5058284;28;20212;-68
2021/12/21 10:32:24;;;;;;;17.60;12.10;;;2.00;99.90;;;3.18;100.00;-19835.03;5064141;28;20400;-69
2021/12/21 10:35:00;;;;;;;19.10;12.20;;;2.10;99.90;;;3.29;100.00;-19838.81;5068942;28;20677;-69
2021/12/21 10:37:33;;;;;;;17.53;12.13;;;2.20;99.90;;;3.44;100.00;-19844.09;5061262;28;20339;-68
2021/12/21 10:40:20;;;;;;;16.17;11.97;;;2.30;99.90;;;3.33;100.00;-19840.19;5061250;28;20199;-70
2021/12/21 10:42:53;;;;;;;17.10;12.73;;;2.40;99.90;;;3.17;100.00;-19834.88;5060784;28;20673;-70
2021/12/21 10:45:32;;;;;;;19.47;12.87;;;2.30;99.90;;;3.20;100.00;-19835.72;5062359;28;20237;-69
2021/12/21 10:48:04;;;;;;;17.93;12.47;;;2.20;99.90;;;3.21;100.00;-19836.25;5062889;28;20292;-69